Time;durP1;ratioP1;P1;durP2;ratioP2;P2;SDS_P1;SDS_P2;PMS_P1;PMS_P2;Temp;Humidity;BMP_temperature;BMP_pressure;BME280_temperature;BME280_humidity;BME280_pressure;Samples;Min_cycle;Max_cycle;Signal;HPM_P1;HPM_P2
2023/06/30 00:00:56;;;;;;;6.53;2.50;;;17.60;99.90;;;;;;4896062;29;20094;-72
2023/06/30 00:03:22;;;;;;;8.10;2.80;;;17.60;99.90;;;;;;4897484;29;20048;-72
2023/06/30 00:05:48;;;;;;;10.10;2.83;;;17.60;99.90;;;;;;4898075;29;20082;-72
2023/06/30 00:08:14;;;;;;;10.80;3.05;;;17.60;99.90;;;;;;4915198;29;20457;-72
2023/06/30 00:10:39;;;;;;;9.60;3.38;;;17.60;99.90;;;;;;4882263;29;20082;-72
2023/06/30 00:13:05;;;;;;;8.98;2.97;;;17.60;99.90;;;;;;4881717;29;20055;-72
2023/06/30 00:15:32;;;;;;;10.98;3.40;;;17.50;99.90;;;;;;4897817;29;20500;-71
2023/06/30 00:17:57;;;;;;;12.65;3.53;;;17.50;99.90;;;;;;4915045;29;20460;-71
2023/06/30 00:20:23;;;;;;;9.38;3.90;;;17.40;99.90;;;;;;4897945;29;20060;-72
2023/06/30 00:22:51;;;;;;;11.13;3.97;;;17.40;99.90;;;;;;4914945;29;20522;-71
2023/06/30 00:25:17;;;;;;;9.23;3.95;;;17.40;99.90;;;;;;4915287;29;20126;-72
2023/06/30 00:27:43;;;;;;;12.52;4.30;;;17.40;99.90;;;;;;4897765;29;20566;-71
2023/06/30 00:30:09;;;;;;;7.28;3.67;;;17.40;99.90;;;;;;4897844;29;20060;-71
2023/06/30 00:32:35;;;;;;;10.45;3.67;;;17.40;99.90;;;;;;4914641;29;20055;-71
2023/06/30 00:35:00;;;;;;;13.07;3.35;;;17.30;99.90;;;;;;4897628;29;20131;-71
2023/06/30 00:37:26;;;;;;;11.50;4.00;;;17.20;99.90;;;;;;4914546;29;20412;-71
2023/06/30 00:39:52;;;;;;;12.10;4.65;;;17.20;99.90;;;;;;4914742;29;20067;-71
2023/06/30 00:42:18;;;;;;;10.20;4.38;;;17.10;99.90;;;;;;4897183;29;20127;-71
2023/06/30 00:44:44;;;;;;;15.90;4.38;;;17.10;99.90;;;;;;4915263;29;20059;-71
2023/06/30 00:47:10;;;;;;;13.85;3.83;;;17.10;99.90;;;;;;4914538;29;20048;-71
2023/06/30 00:49:36;;;;;;;8.85;4.13;;;17.10;99.90;;;;;;4914727;29;20094;-72
2023/06/30 00:52:03;;;;;;;8.85;3.70;;;17.10;99.90;;;;;;4914345;29;20056;-72
2023/06/30 00:54:28;;;;;;;7.32;3.53;;;17.00;99.90;;;;;;4897567;29;20067;-72
2023/06/30 00:56:58;;;;;;;10.38;3.08;;;17.00;99.90;;;;;;4914153;29;20519;-72
2023/06/30 00:59:23;;;;;;;9.27;3.47;;;17.00;99.90;;;;;;4914208;29;20056;-72
2023/06/30 01:01:58;;;;;;;8.00;3.40;;;16.90;99.90;;;;;;4914376;29;20056;-71
2023/06/30 01:04:26;;;;;;;12.93;3.63;;;16.90;99.90;;;;;;4897255;29;20052;-72
2023/06/30 01:07:02;;;;;;;12.88;3.65;;;16.80;99.90;;;;;;4897191;29;20099;-72
2023/06/30 01:09:36;;;;;;;9.60;3.22;;;16.70;99.90;;;;;;4882735;29;20067;-71
2023/06/30 01:12:02;;;;;;;12.55;3.47;;;16.70;99.90;;;;;;4913745;29;20056;-71
2023/06/30 01:14:30;;;;;;;9.93;3.80;;;16.70;99.90;;;;;;4914344;29;20048;-72
2023/06/30 01:16:57;;;;;;;10.45;3.80;;;16.60;99.90;;;;;;4914087;29;20068;-71
2023/06/30 01:19:47;;;;;;;7.68;2.90;;;16.60;99.90;;;;;;4897098;29;20423;-71
2023/06/30 01:22:25;;;;;;;9.70;2.60;;;16.60;99.90;;;;;;4914331;29;20066;-71
2023/06/30 01:24:56;;;;;;;10.80;2.92;;;16.60;99.90;;;;;;4915578;29;20055;-72
2023/06/30 01:27:22;;;;;;;5.25;2.72;;;16.50;99.90;;;;;;4917799;29;20127;-72
2023/06/30 01:29:51;;;;;;;8.15;2.60;;;16.50;99.90;;;;;;4917854;29;20065;-71
2023/06/30 01:32:17;;;;;;;8.90;2.95;;;16.50;99.90;;;;;;4900600;29;20143;-71
2023/06/30 01:34:44;;;;;;;9.30;2.50;;;16.40;99.90;;;;;;4900516;29;20116;-70
2023/06/30 01:37:11;;;;;;;7.88;2.90;;;16.40;99.90;;;;;;4900731;29;20056;-71
2023/06/30 01:39:36;;;;;;;9.65;2.92;;;16.40;99.90;;;;;;4917770;29;20048;-71
2023/06/30 01:42:03;;;;;;;7.93;2.80;;;16.40;99.90;;;;;;4917443;29;20078;-71
2023/06/30 01:44:29;;;;;;;3.65;2.13;;;16.40;99.90;;;;;;4885240;29;20509;-71
2023/06/30 01:46:54;;;;;;;12.57;2.67;;;16.40;99.90;;;;;;4885142;29;20056;-71
2023/06/30 01:49:21;;;;;;;10.93;2.53;;;16.30;99.90;;;;;;4900346;29;20123;-71
2023/06/30 01:51:47;;;;;;;5.82;2.20;;;16.30;99.90;;;;;;4917739;29;20052;-71
2023/06/30 01:54:12;;;;;;;6.97;2.20;;;16.20;99.90;;;;;;4917519;29;20044;-71
2023/06/30 01:56:47;;;;;;;5.97;2.08;;;16.20;99.90;;;;;;4917342;29;20048;-71
2023/06/30 01:59:13;;;;;;;4.85;2.30;;;16.20;99.90;;;;;;4917471;29;20080;-72
2023/06/30 02:01:39;;;;;;;6.30;2.20;;;16.10;99.90;;;;;;4917275;29;20692;-71
2023/06/30 02:04:04;;;;;;;5.88;2.17;;;16.10;99.90;;;;;;4917387;29;20050;-71
2023/06/30 02:06:30;;;;;;;6.15;2.42;;;16.10;99.90;;;;;;4900176;29;20104;-71
2023/06/30 02:08:56;;;;;;;5.68;2.10;;;16.00;99.90;;;;;;4917144;29;20060;-72
2023/06/30 02:11:21;;;;;;;9.07;2.35;;;16.00;99.90;;;;;;4899966;29;20577;-71
2023/06/30 02:13:47;;;;;;;6.05;2.10;;;16.00;99.90;;;;;;4899763;29;20055;-72
2023/06/30 02:16:13;;;;;;;6.78;2.20;;;15.90;99.90;;;;;;4917067;29;20075;-71
2023/06/30 02:18:39;;;;;;;11.73;2.47;;;15.90;99.90;;;;;;4916824;29;20745;-72
2023/06/30 02:21:05;;;;;;;6.95;2.13;;;15.90;99.90;;;;;;4916727;29;20471;-71
2023/06/30 02:23:32;;;;;;;6.47;2.30;;;15.80;99.90;;;;;;4916765;29;20055;-72
2023/06/30 02:25:58;;;;;;;4.80;1.83;;;15.80;99.90;;;;;;4916846;29;20056;-72
2023/06/30 02:28:24;;;;;;;7.57;1.90;;;15.80;99.90;;;;;;4917377;29;20538;-71
2023/06/30 02:30:49;;;;;;;4.97;1.80;;;15.70;99.90;;;;;;4899558;29;20428;-71
2023/06/30 02:33:16;;;;;;;8.82;2.38;;;15.70;99.90;;;;;;4899476;29;20412;-71
2023/06/30 02:35:42;;;;;;;13.15;2.30;;;15.70;99.90;;;;;;4916267;29;20057;-71
2023/06/30 02:38:08;;;;;;;7.30;2.50;;;15.60;99.90;;;;;;4899346;29;20060;-71
2023/06/30 02:40:33;;;;;;;4.60;1.90;;;15.60;99.90;;;;;;4916749;29;20060;-71
2023/06/30 02:42:59;;;;;;;7.15;2.30;;;15.60;99.90;;;;;;4917117;29;20048;-71
2023/06/30 02:45:25;;;;;;;5.35;2.40;;;15.60;99.90;;;;;;4899700;29;20115;-71
2023/06/30 02:47:51;;;;;;;4.35;2.35;;;15.60;99.90;;;;;;4899358;29;20500;-71
2023/06/30 02:50:17;;;;;;;3.83;2.15;;;15.50;99.90;;;;;;4916211;29;20055;-71
2023/06/30 02:52:43;;;;;;;9.63;1.90;;;15.50;99.90;;;;;;4916314;29;20512;-71
2023/06/30 02:55:09;;;;;;;10.45;2.55;;;15.50;99.90;;;;;;4916382;29;20517;-71
2023/06/30 02:57:35;;;;;;;6.03;2.15;;;15.40;99.90;;;;;;4916540;29;20052;-71
2023/06/30 03:00:00;;;;;;;8.13;2.22;;;15.40;99.90;;;;;;4916503;29;20524;-71
2023/06/30 03:02:26;;;;;;;7.65;1.77;;;15.40;99.90;;;;;;4916136;29;20067;-72
2023/06/30 03:04:55;;;;;;;7.32;2.30;;;15.30;99.90;;;;;;4899155;29;20095;-72
2023/06/30 03:07:21;;;;;;;6.78;2.53;;;15.20;99.90;;;;;;4915916;29;20071;-73
2023/06/30 03:09:47;;;;;;;6.85;2.30;;;15.20;99.90;;;;;;4899035;29;20052;-72
2023/06/30 03:12:13;;;;;;;3.92;2.33;;;15.20;99.90;;;;;;4898875;29;20063;-72
2023/06/30 03:14:39;;;;;;;6.18;2.50;;;15.20;99.90;;;;;;4898969;29;20083;-72
2023/06/30 03:17:05;;;;;;;5.63;2.22;;;15.10;99.90;;;;;;4898874;29;20051;-72
2023/06/30 03:19:30;;;;;;;4.80;2.10;;;15.00;99.90;;;;;;4916005;29;20477;-72
2023/06/30 03:21:56;;;;;;;4.47;2.00;;;15.00;99.90;;;;;;4915855;29;20060;-73
2023/06/30 03:24:22;;;;;;;6.55;1.98;;;15.00;99.90;;;;;;4898765;29;20116;-72
2023/06/30 03:26:48;;;;;;;6.63;2.17;;;15.00;99.90;;;;;;4915691;29;20052;-72
2023/06/30 03:29:13;;;;;;;11.05;2.47;;;15.00;99.90;;;;;;4915905;29;20056;-72
2023/06/30 03:31:39;;;;;;;6.80;2.03;;;14.90;99.90;;;;;;4916013;29;20048;-72
2023/06/30 03:34:05;;;;;;;9.77;1.88;;;14.90;99.90;;;;;;4916032;29;20059;-72
2023/06/30 03:36:30;;;;;;;5.72;2.38;;;14.80;99.90;;;;;;4915456;29;20508;-72
2023/06/30 03:38:56;;;;;;;10.27;2.28;;;14.90;99.90;;;;;;4898666;29;20515;-72
2023/06/30 03:41:21;;;;;;;5.95;2.45;;;14.80;99.90;;;;;;4915782;29;20047;-72
2023/06/30 03:43:47;;;;;;;10.85;2.67;;;14.80;99.90;;;;;;4898355;29;20052;-72
2023/06/30 03:46:15;;;;;;;5.25;2.08;;;14.80;99.90;;;;;;4915377;29;20048;-72
2023/06/30 03:48:41;;;;;;;6.53;2.20;;;14.80;99.90;;;;;;4897699;29;20092;-72
2023/06/30 03:51:06;;;;;;;3.38;1.98;;;14.70;99.90;;;;;;4914991;29;20136;-72
2023/06/30 03:53:32;;;;;;;8.43;2.63;;;14.70;99.90;;;;;;4898260;29;20052;-72
2023/06/30 03:55:58;;;;;;;8.18;2.33;;;14.70;99.90;;;;;;4915296;29;20452;-72
2023/06/30 03:58:24;;;;;;;7.53;3.03;;;14.80;99.90;;;;;;4915063;29;20560;-72
2023/06/30 04:00:50;;;;;;;7.50;2.38;;;14.70;99.90;;;;;;4915366;29;20091;-72
2023/06/30 04:03:15;;;;;;;5.80;2.13;;;14.70;99.90;;;;;;4915220;29;20056;-72
2023/06/30 04:05:41;;;;;;;6.72;2.10;;;14.70;99.90;;;;;;4914920;29;20137;-72
2023/06/30 04:08:07;;;;;;;7.05;2.22;;;14.70;99.90;;;;;;4898273;29;20056;-72
2023/06/30 04:10:33;;;;;;;8.50;2.65;;;14.80;99.90;;;;;;4915267;29;20054;-72
2023/06/30 04:12:59;;;;;;;4.72;2.30;;;14.80;99.90;;;;;;4897881;29;20055;-72
2023/06/30 04:15:24;;;;;;;3.30;2.03;;;14.80;99.90;;;;;;4897834;29;20471;-71
2023/06/30 04:17:50;;;;;;;5.10;2.20;;;14.80;99.90;;;;;;4915104;29;20075;-72
2023/06/30 04:20:16;;;;;;;10.23;2.70;;;14.90;99.90;;;;;;4914563;29;20056;-71
2023/06/30 04:22:42;;;;;;;5.53;2.15;;;14.80;99.90;;;;;;4914837;29;20060;-71
2023/06/30 04:25:08;;;;;;;6.97;2.58;;;14.80;99.90;;;;;;4914722;29;20115;-72
2023/06/30 04:27:34;;;;;;;8.32;2.55;;;14.80;99.90;;;;;;4914716;29;20044;-71
2023/06/30 04:30:00;;;;;;;5.13;2.20;;;14.80;99.90;;;;;;4897902;29;20059;-71
2023/06/30 04:32:26;;;;;;;9.52;2.40;;;14.80;99.90;;;;;;4914779;29;20569;-71
2023/06/30 04:34:51;;;;;;;5.90;2.55;;;14.90;99.90;;;;;;4914641;29;20051;-71
2023/06/30 04:37:17;;;;;;;5.15;2.50;;;14.90;99.90;;;;;;4914883;29;20503;-72
2023/06/30 04:39:43;;;;;;;10.25;2.58;;;14.90;99.90;;;;;;4897543;29;20100;-71
2023/06/30 04:42:08;;;;;;;12.00;2.92;;;15.00;99.90;;;;;;4897366;29;20056;-70
2023/06/30 04:44:36;;;;;;;5.97;2.38;;;15.10;99.90;;;;;;4897419;29;20056;-71
2023/06/30 04:47:03;;;;;;;7.55;3.45;;;15.10;99.90;;;;;;4914505;29;20060;-72
2023/06/30 04:49:28;;;;;;;7.40;2.22;;;15.10;99.90;;;;;;4914295;29;20404;-71
2023/06/30 04:51:54;;;;;;;6.40;2.15;;;15.20;99.90;;;;;;4914334;29;20063;-71
2023/06/30 04:54:21;;;;;;;6.43;2.50;;;15.30;99.90;;;;;;4897433;29;20048;-71
2023/06/30 04:56:47;;;;;;;6.32;2.15;;;15.40;99.90;;;;;;4914336;29;20094;-70
2023/06/30 04:59:13;;;;;;;7.32;2.80;;;15.40;99.90;;;;;;4914387;29;20488;-71
2023/06/30 05:01:38;;;;;;;6.10;2.45;;;15.50;99.90;;;;;;4914644;29;20048;-71
2023/06/30 05:04:04;;;;;;;7.60;2.55;;;15.70;99.90;;;;;;4897225;29;20094;-71
2023/06/30 05:06:30;;;;;;;6.78;2.28;;;15.80;99.90;;;;;;4914658;29;20112;-71
2023/06/30 05:08:56;;;;;;;11.82;2.30;;;15.80;99.90;;;;;;4915234;29;20100;-71
2023/06/30 05:11:21;;;;;;;8.82;2.55;;;16.00;99.90;;;;;;4897845;29;20044;-70
2023/06/30 05:13:47;;;;;;;9.90;2.90;;;16.20;99.90;;;;;;4897418;29;20576;-71
2023/06/30 05:16:13;;;;;;;10.38;2.50;;;16.20;99.90;;;;;;4897125;29;20099;-71
2023/06/30 05:18:39;;;;;;;5.72;2.60;;;16.30;99.90;;;;;;4913955;29;20048;-72
2023/06/30 05:21:07;;;;;;;8.40;2.35;;;16.50;99.90;;;;;;4914004;29;20048;-71
2023/06/30 05:23:33;;;;;;;6.60;2.22;;;16.60;99.90;;;;;;4897361;29;20056;-72
2023/06/30 05:25:58;;;;;;;9.50;2.17;;;16.70;99.90;;;;;;4897217;29;20052;-71
2023/06/30 05:28:24;;;;;;;7.00;2.00;;;16.90;99.90;;;;;;4914251;29;20052;-72
2023/06/30 05:30:50;;;;;;;6.93;2.00;;;17.00;99.90;;;;;;4896934;29;20083;-71
2023/06/30 05:33:15;;;;;;;8.82;2.90;;;17.10;99.90;;;;;;4914079;29;20140;-72
2023/06/30 05:35:41;;;;;;;5.63;2.38;;;17.20;99.90;;;;;;4914272;29;20047;-71
2023/06/30 05:38:07;;;;;;;3.65;1.95;;;17.30;99.90;;;;;;4914038;29;20564;-71
2023/06/30 05:40:32;;;;;;;6.20;2.38;;;17.40;99.90;;;;;;4881288;29;20136;-71
2023/06/30 05:42:58;;;;;;;10.65;2.28;;;17.50;99.90;;;;;;4913958;29;20054;-71
2023/06/30 05:45:25;;;;;;;5.70;1.98;;;17.60;99.90;;;;;;4913778;29;20052;-72
2023/06/30 05:47:51;;;;;;;12.18;2.35;;;17.50;99.90;;;;;;4896744;29;20060;-74
2023/06/30 05:50:17;;;;;;;4.28;1.88;;;17.40;99.90;;;;;;4896880;29;20075;-74
2023/06/30 05:52:43;;;;;;;8.88;2.22;;;17.40;99.90;;;;;;4914053;29;20419;-74
2023/06/30 05:55:08;;;;;;;6.07;2.05;;;17.40;99.90;;;;;;4914169;29;20059;-73
2023/06/30 05:57:34;;;;;;;8.20;1.90;;;17.40;99.90;;;;;;4897037;29;20048;-74
2023/06/30 06:00:00;;;;;;;7.80;2.25;;;17.50;99.90;;;;;;4883408;29;20048;-73
2023/06/30 06:02:26;;;;;;;8.02;1.95;;;17.70;99.90;;;;;;4878229;29;20415;-73
2023/06/30 06:04:54;;;;;;;6.82;1.95;;;17.90;99.90;;;;;;4880999;29;20555;-75
2023/06/30 06:07:20;;;;;;;9.93;2.08;;;18.00;99.90;;;;;;4885656;29;20057;-75
2023/06/30 06:09:46;;;;;;;7.90;2.13;;;18.10;99.90;;;;;;4878352;29;20069;-75
2023/06/30 06:12:11;;;;;;;7.75;2.20;;;18.30;99.90;;;;;;4878375;29;20056;-75
2023/06/30 06:14:37;;;;;;;5.65;1.90;;;18.30;99.90;;;;;;4881895;29;20095;-75
2023/06/30 06:17:03;;;;;;;6.68;2.10;;;18.60;99.90;;;;;;4898562;29;20524;-75
2023/06/30 06:19:28;;;;;;;7.78;1.85;;;18.50;99.90;;;;;;4898708;29;20137;-75
2023/06/30 06:21:54;;;;;;;6.43;2.10;;;18.70;99.90;;;;;;4898800;29;20404;-75
2023/06/30 06:24:20;;;;;;;5.88;1.75;;;18.80;99.90;;;;;;4881268;29;20059;-75
2023/06/30 06:26:45;;;;;;;7.10;1.80;;;18.80;99.90;;;;;;4898901;29;20112;-75
2023/06/30 06:29:17;;;;;;;6.35;1.80;;;18.60;99.90;;;;;;4898703;29;20373;-75
2023/06/30 06:31:44;;;;;;;3.10;1.58;;;18.60;99.90;;;;;;4898160;29;20067;-75
2023/06/30 06:34:10;;;;;;;6.95;1.73;;;18.40;99.90;;;;;;4881499;29;20154;-75
2023/06/30 06:36:36;;;;;;;8.15;2.47;;;18.50;99.90;;;;;;4898521;29;20056;-76
2023/06/30 06:39:01;;;;;;;8.05;1.60;;;18.50;99.90;;;;;;4881728;29;20128;-76
2023/06/30 06:41:27;;;;;;;6.15;1.52;;;18.50;99.90;;;;;;4898371;29;20513;-76
2023/06/30 06:43:53;;;;;;;8.20;1.58;;;18.70;99.90;;;;;;4898548;29;20092;-76
2023/06/30 06:46:18;;;;;;;3.65;1.50;;;18.70;99.90;;;;;;4881087;29;20444;-75
2023/06/30 06:48:44;;;;;;;7.85;1.60;;;18.90;99.90;;;;;;4898173;29;20060;-76
2023/06/30 06:51:10;;;;;;;7.47;1.67;;;18.90;99.90;;;;;;4898123;29;20060;-75
2023/06/30 06:53:36;;;;;;;6.88;1.40;;;19.00;99.90;;;;;;4880888;29;20462;-74
2023/06/30 06:56:03;;;;;;;7.40;1.70;;;18.90;99.90;;;;;;4897996;29;20045;-75
2023/06/30 06:58:31;;;;;;;7.18;1.50;;;18.90;99.90;;;;;;4897864;29;20055;-75
2023/06/30 07:00:57;;;;;;;7.75;1.75;;;19.00;99.90;;;;;;4880817;29;20104;-75
2023/06/30 07:03:23;;;;;;;2.40;1.13;;;19.10;99.90;;;;;;4880958;29;20465;-71
2023/06/30 07:05:49;;;;;;;3.38;1.05;;;19.00;99.90;;;;;;4880680;29;20060;-69
2023/06/30 07:08:16;;;;;;;4.43;1.42;;;19.00;99.90;;;;;;4880486;29;20441;-70
2023/06/30 07:10:43;;;;;;;8.13;1.50;;;19.00;99.90;;;;;;4897418;29;20055;-70
2023/06/30 07:13:09;;;;;;;5.78;1.35;;;18.90;99.90;;;;;;4880095;29;20045;-70
2023/06/30 07:15:35;;;;;;;6.90;1.20;;;19.10;99.90;;;;;;4880559;29;20063;-70
2023/06/30 07:18:01;;;;;;;5.82;1.30;;;19.40;99.90;;;;;;4897344;29;20504;-70
2023/06/30 07:20:27;;;;;;;3.47;1.10;;;19.40;99.90;;;;;;4896930;29;20131;-67
2023/06/30 07:22:55;;;;;;;4.22;1.08;;;19.60;99.90;;;;;;4897103;29;20048;-68
2023/06/30 07:25:22;;;;;;;2.63;1.20;;;19.60;99.90;;;;;;4896899;29;20081;-70
2023/06/30 07:27:53;;;;;;;8.73;1.33;;;19.70;99.90;;;;;;4879915;29;20056;-69
2023/06/30 07:30:24;;;;;;;3.85;1.73;;;19.70;99.90;;;;;;4896938;29;20523;-70
2023/06/30 07:32:50;;;;;;;2.83;1.13;;;19.70;99.90;;;;;;4880305;29;20064;-71
2023/06/30 07:35:17;;;;;;;4.45;1.27;;;19.60;99.90;;;;;;4880035;29;20052;-69
2023/06/30 07:37:44;;;;;;;6.22;1.35;;;19.70;99.90;;;;;;4897158;29;20408;-70
2023/06/30 07:40:10;;;;;;;4.07;1.67;;;19.60;99.90;;;;;;4896883;29;20052;-70
2023/06/30 07:42:38;;;;;;;3.67;1.20;;;19.60;99.90;;;;;;4896686;29;20066;-70
2023/06/30 07:45:10;;;;;;;2.83;1.33;;;19.70;99.90;;;;;;4896632;29;20099;-69
2023/06/30 07:47:37;;;;;;;5.35;1.55;;;19.70;99.90;;;;;;4896857;29;20088;-71
2023/06/30 07:50:09;;;;;;;6.20;1.10;;;19.80;99.90;;;;;;4879898;29;20060;-71
2023/06/30 07:52:36;;;;;;;2.30;1.40;;;19.90;99.90;;;;;;4864214;29;20131;-70
2023/06/30 07:55:04;;;;;;;5.10;1.40;;;19.70;99.90;;;;;;4896887;29;20892;-71
2023/06/30 07:57:29;;;;;;;4.88;1.10;;;19.80;99.90;;;;;;4896542;29;20715;-71
2023/06/30 07:59:55;;;;;;;5.22;1.10;;;19.80;99.90;;;;;;4896645;29;20088;-71
2023/06/30 08:02:21;;;;;;;9.20;1.55;;;19.80;99.90;;;;;;4896642;29;20063;-71
2023/06/30 08:04:46;;;;;;;4.22;1.42;;;19.90;99.90;;;;;;4879548;29;20115;-70
2023/06/30 08:07:12;;;;;;;3.88;1.00;;;20.00;99.90;;;;;;4896501;29;20048;-70
2023/06/30 08:09:38;;;;;;;3.03;1.20;;;20.30;99.90;;;;;;4896432;29;20404;-70
2023/06/30 08:12:04;;;;;;;3.60;1.20;;;20.20;99.90;;;;;;4876822;29;20055;-70
2023/06/30 08:14:30;;;;;;;2.00;0.90;;;20.20;99.90;;;;;;4895995;29;20040;-70
2023/06/30 08:16:55;;;;;;;4.43;1.40;;;20.20;99.90;;;;;;4896135;29;20063;-70
2023/06/30 08:19:21;;;;;;;4.80;1.20;;;20.10;99.90;;;;;;4877263;29;20062;-70
2023/06/30 08:21:47;;;;;;;3.88;1.00;;;20.30;99.90;;;;;;4883592;29;20168;-70
2023/06/30 08:24:13;;;;;;;5.60;0.90;;;20.20;99.90;;;;;;4860742;29;20068;-70
2023/06/30 08:26:38;;;;;;;6.28;0.98;;;20.30;99.90;;;;;;4877213;29;20056;-70
2023/06/30 08:29:04;;;;;;;3.75;1.17;;;20.30;99.90;;;;;;4877222;29;20565;-70
2023/06/30 08:31:30;;;;;;;2.35;1.10;;;20.30;99.90;;;;;;4877258;29;20188;-70
2023/06/30 08:33:56;;;;;;;4.32;1.00;;;20.40;99.90;;;;;;4876609;29;20057;-70
2023/06/30 08:36:23;;;;;;;2.67;1.10;;;20.50;99.90;;;;;;4877221;29;20068;-70
2023/06/30 08:38:48;;;;;;;3.15;1.27;;;20.60;99.90;;;;;;4860545;29;20049;-70
2023/06/30 08:41:15;;;;;;;4.45;1.00;;;20.80;99.90;;;;;;4876968;29;20444;-68
2023/06/30 08:43:41;;;;;;;2.78;1.00;;;20.70;99.90;;;;;;4877086;29;20142;-68
2023/06/30 08:46:08;;;;;;;3.05;0.80;;;20.60;99.90;;;;;;4877163;29;20053;-68
2023/06/30 08:48:36;;;;;;;4.55;1.10;;;20.60;99.90;;;;;;4876878;29;20049;-68
2023/06/30 08:51:03;;;;;;;3.80;0.98;;;20.70;99.90;;;;;;4876913;29;20057;-69
2023/06/30 08:53:30;;;;;;;5.25;1.20;;;20.90;99.90;;;;;;4877156;29;20049;-67
2023/06/30 08:55:58;;;;;;;5.05;1.40;;;21.00;99.90;;;;;;4876983;29;20065;-69
2023/06/30 08:58:28;;;;;;;5.13;0.98;;;20.90;99.90;;;;;;4876554;29;20136;-69
2023/06/30 09:00:57;;;;;;;3.05;0.80;;;21.00;99.90;;;;;;4876974;29;20139;-70
2023/06/30 09:03:23;;;;;;;5.40;1.15;;;21.10;99.90;;;;;;4893035;29;20487;-70
2023/06/30 09:05:58;;;;;;;5.63;1.00;;;20.90;99.90;;;;;;4914497;29;20051;-70
2023/06/30 09:08:32;;;;;;;1.02;0.70;;;21.00;99.90;;;;;;4914254;29;20063;-70
2023/06/30 09:10:58;;;;;;;4.28;1.25;;;21.30;99.90;;;;;;4913959;29;20062;-70
2023/06/30 09:13:24;;;;;;;0.90;0.70;;;21.40;99.90;;;;;;4881434;29;20115;-70
2023/06/30 09:15:50;;;;;;;1.40;0.95;;;21.30;99.90;;;;;;4897527;29;20056;-70
2023/06/30 09:18:16;;;;;;;1.95;1.00;;;21.30;99.90;;;;;;4914273;29;20503;-70
2023/06/30 09:20:42;;;;;;;4.78;0.90;;;21.40;99.90;;;;;;4914314;29;20104;-71
2023/06/30 09:23:09;;;;;;;1.80;1.10;;;21.00;99.90;;;;;;4897071;29;20059;-71
2023/06/30 09:25:35;;;;;;;2.20;1.10;;;21.20;99.90;;;;;;4914123;29;20048;-70
2023/06/30 09:28:10;;;;;;;6.28;0.77;;;21.30;99.90;;;;;;4902361;29;20390;-69
2023/06/30 09:30:46;;;;;;;3.75;0.77;;;21.30;99.90;;;;;;4885789;29;20060;-70
2023/06/30 09:33:15;;;;;;;1.88;0.93;;;21.40;99.90;;;;;;4914163;29;20131;-70
2023/06/30 09:35:44;;;;;;;4.20;0.80;;;21.40;99.90;;;;;;4897434;29;20580;-70
2023/06/30 09:38:11;;;;;;;2.50;0.80;;;21.60;99.90;;;;;;4903399;29;20599;-70
2023/06/30 09:40:37;;;;;;;4.38;1.15;;;21.70;99.90;;;;;;4895343;29;20476;-70
2023/06/30 09:43:04;;;;;;;1.80;1.00;;;21.80;99.90;;;;;;4895295;29;20493;-69
2023/06/30 09:45:29;;;;;;;6.82;1.10;;;21.60;99.90;;;;;;4896152;29;20515;-70
2023/06/30 09:47:55;;;;;;;1.95;0.93;;;21.50;99.90;;;;;;4887028;29;20088;-70
2023/06/30 09:50:24;;;;;;;1.45;0.82;;;21.60;99.90;;;;;;4891437;29;20445;-71
2023/06/30 09:52:50;;;;;;;4.43;1.30;;;21.80;99.90;;;;;;4898611;29;20061;-70
2023/06/30 09:55:16;;;;;;;0.80;0.70;;;21.70;99.90;;;;;;4912423;29;20070;-70
2023/06/30 09:57:43;;;;;;;1.63;0.80;;;22.00;99.90;;;;;;4917416;29;20146;-70
2023/06/30 10:00:13;;;;;;;2.13;0.95;;;21.90;99.90;;;;;;4917667;29;20060;-71
2023/06/30 10:02:40;;;;;;;4.95;1.33;;;21.70;99.90;;;;;;4900275;29;20056;-71
2023/06/30 10:05:09;;;;;;;3.22;0.73;;;21.70;99.90;;;;;;4917219;29;20050;-71
2023/06/30 10:07:36;;;;;;;6.07;1.25;;;21.90;99.90;;;;;;4916891;29;20056;-70
2023/06/30 10:10:02;;;;;;;3.72;0.80;;;22.00;99.90;;;;;;4917334;29;20048;-69
2023/06/30 10:12:33;;;;;;;3.95;0.80;;;22.10;99.90;;;;;;4916506;29;20056;-70
2023/06/30 10:15:00;;;;;;;2.90;1.38;;;22.20;99.90;;;;;;4899985;29;20056;-68
2023/06/30 10:17:27;;;;;;;4.97;1.13;;;22.00;99.90;;;;;;4909239;29;20053;-71
2023/06/30 10:19:53;;;;;;;5.90;1.30;;;21.80;99.90;;;;;;4897177;29;20057;-70
2023/06/30 10:22:19;;;;;;;3.95;0.90;;;22.00;99.90;;;;;;4896868;29;20052;-71
2023/06/30 10:24:47;;;;;;;2.30;0.90;;;21.90;99.90;;;;;;4897376;29;20112;-73
2023/06/30 10:27:18;;;;;;;3.70;0.90;;;21.90;99.90;;;;;;4880702;29;20061;-74
2023/06/30 10:29:47;;;;;;;2.25;1.20;;;22.00;99.90;;;;;;4880980;29;20100;-73
2023/06/30 10:32:14;;;;;;;2.63;0.75;;;22.10;99.90;;;;;;4897808;29;20079;-72
2023/06/30 10:34:41;;;;;;;1.10;0.82;;;22.20;99.80;;;;;;4880894;29;20057;-73
2023/06/30 10:37:07;;;;;;;3.00;1.05;;;22.30;99.90;;;;;;4896912;29;20079;-72
2023/06/30 10:39:34;;;;;;;4.25;1.02;;;22.40;99.90;;;;;;4879655;29;20056;-72
2023/06/30 10:42:00;;;;;;;6.18;0.90;;;22.40;99.90;;;;;;4880267;29;20055;-72
2023/06/30 10:44:39;;;;;;;3.50;1.23;;;22.30;99.90;;;;;;4880760;29;20044;-72
2023/06/30 10:47:05;;;;;;;4.47;1.10;;;22.30;99.50;;;;;;4895144;29;20062;-72
2023/06/30 10:49:41;;;;;;;2.75;0.93;;;22.30;99.90;;;;;;4897516;29;20044;-72
2023/06/30 10:52:08;;;;;;;2.53;1.00;;;22.30;99.60;;;;;;4895216;29;20144;-73
2023/06/30 10:54:47;;;;;;;1.17;0.80;;;22.40;99.90;;;;;;4905683;29;20048;-72
2023/06/30 10:57:19;;;;;;;5.70;0.90;;;22.30;99.60;;;;;;4912757;29;20052;-72
2023/06/30 11:00:06;;;;;;;2.72;0.80;;;22.40;99.90;;;;;;4880027;29;20124;-72
2023/06/30 11:02:33;;;;;;;1.75;0.90;;;22.40;99.90;;;;;;4861997;29;20099;-72
2023/06/30 11:05:28;;;;;;;2.30;1.15;;;22.40;99.90;;;;;;4861856;29;20060;-72
2023/06/30 11:08:23;;;;;;;1.60;0.90;;;22.30;99.90;;;;;;4861774;29;20707;-72
2023/06/30 11:10:50;;;;;;;4.20;1.02;;;22.20;99.70;;;;;;4878725;29;20064;-72
2023/06/30 11:13:35;;;;;;;2.83;0.90;;;22.10;99.90;;;;;;4878668;29;20057;-72
2023/06/30 11:16:02;;;;;;;2.28;1.00;;;21.90;99.90;;;;;;4861754;29;20185;-71
2023/06/30 11:18:28;;;;;;;6.30;1.20;;;21.90;99.90;;;;;;4861555;29;20057;-72
2023/06/30 11:21:04;;;;;;;2.53;1.20;;;21.90;99.90;;;;;;4877936;29;20059;-72
2023/06/30 11:23:37;;;;;;;2.85;0.82;;;22.20;99.90;;;;;;4861649;29;20070;-72
2023/06/30 11:26:35;;;;;;;2.65;0.90;;;22.10;99.80;;;;;;4846168;29;20057;-72
2023/06/30 11:29:02;;;;;;;6.78;1.05;;;22.20;99.80;;;;;;4877795;29;20382;-72
2023/06/30 11:31:36;;;;;;;3.72;0.80;;;22.10;99.90;;;;;;4878381;29;20057;-70
2023/06/30 11:34:02;;;;;;;3.78;1.02;;;22.10;99.90;;;;;;4895660;29;20065;-71
2023/06/30 11:36:31;;;;;;;4.43;0.90;;;22.20;99.90;;;;;;4896662;29;20052;-70
2023/06/30 11:39:00;;;;;;;2.25;0.93;;;22.50;99.60;;;;;;4896117;29;20064;-69
2023/06/30 11:41:31;;;;;;;2.95;1.10;;;22.50;99.60;;;;;;4896684;29;20092;-69
2023/06/30 11:43:57;;;;;;;3.53;0.93;;;22.50;99.00;;;;;;4879812;29;20056;-69
2023/06/30 11:46:23;;;;;;;3.80;1.10;;;22.40;99.20;;;;;;4896679;29;20059;-69
2023/06/30 11:48:49;;;;;;;3.15;1.20;;;22.40;99.30;;;;;;4896602;29;20048;-69
2023/06/30 11:51:16;;;;;;;3.60;1.02;;;22.50;99.50;;;;;;4896657;29;20051;-69
2023/06/30 11:53:43;;;;;;;2.83;1.15;;;22.60;99.40;;;;;;4896373;29;20056;-69
2023/06/30 11:56:08;;;;;;;8.13;1.00;;;22.50;99.30;;;;;;4879537;29;20057;-69
2023/06/30 11:58:34;;;;;;;1.88;1.17;;;22.60;98.80;;;;;;4896585;29;20060;-69
2023/06/30 12:01:03;;;;;;;3.63;0.88;;;22.60;98.40;;;;;;4896429;29;20408;-69
2023/06/30 12:03:29;;;;;;;3.95;1.48;;;22.80;98.60;;;;;;4896055;29;20063;-69
2023/06/30 12:05:56;;;;;;;4.07;1.00;;;22.70;97.50;;;;;;4896147;29;20408;-69
2023/06/30 12:08:26;;;;;;;2.00;1.23;;;22.80;98.10;;;;;;4895450;29;20055;-69
2023/06/30 12:10:52;;;;;;;5.65;1.25;;;22.90;98.00;;;;;;4896370;29;20068;-69
2023/06/30 12:13:17;;;;;;;3.08;1.10;;;22.80;97.50;;;;;;4879004;29;20057;-69
2023/06/30 12:15:43;;;;;;;1.63;0.93;;;22.90;97.80;;;;;;4896091;29;20050;-69
2023/06/30 12:18:09;;;;;;;5.90;1.55;;;23.10;98.00;;;;;;4896096;29;20123;-69
2023/06/30 12:20:37;;;;;;;7.35;1.20;;;23.20;98.00;;;;;;4895879;29;20068;-69
2023/06/30 12:23:06;;;;;;;5.07;1.30;;;23.30;97.90;;;;;;4896203;29;20062;-69
2023/06/30 12:25:35;;;;;;;2.88;1.10;;;23.10;97.80;;;;;;4879351;29;20053;-69
2023/06/30 12:28:03;;;;;;;5.47;1.50;;;23.20;97.90;;;;;;4879352;29;20061;-69
2023/06/30 12:30:28;;;;;;;4.40;1.30;;;23.10;97.90;;;;;;4878879;29;20539;-69
2023/06/30 12:32:57;;;;;;;3.85;1.40;;;23.10;98.00;;;;;;4878774;29;20135;-69
2023/06/30 12:35:49;;;;;;;2.38;1.25;;;23.30;98.10;;;;;;4895921;29;20052;-69
2023/06/30 12:38:14;;;;;;;4.85;1.30;;;23.20;97.30;;;;;;4878800;29;20108;-69
2023/06/30 12:40:40;;;;;;;5.75;1.52;;;23.30;97.80;;;;;;4895637;29;20049;-69
2023/06/30 12:43:06;;;;;;;6.88;1.10;;;23.10;97.70;;;;;;4878729;29;20136;-69
2023/06/30 12:45:31;;;;;;;6.50;1.40;;;23.10;97.80;;;;;;4895844;29;20111;-68